Linda L. Miller — WDF5279 — position and weather

sailwx.info

Track history (hours):
 
Tides and Currents Weather Stations Pressure Air Temp Water Temp Dewpoint Dewpoint Depression Visibility Wind Speed Wind Dir Waves Ship Positions

Linda L. Miller

Owner: Miller's Launch, Staten Island, NY. More information available from US FCC via Universal Licensing System and Coast Guard Vessel Documentation Center.

Last reported at 2017-Sep-21 19:30 UTC. Time now 2017-Sep-25 00:48 UTC.
Position N 40°40' W 074°01'.

Length 9 m.

MMSI: 367461380.

Date/timePositionNaut miles runAvg speedWind from/ knotsBaromVisibWave heightAir tempDewpointWater temp
2017-Sep-21 19:30N 40°40' W 074°01'2 3.1
2017-Sep-21 19:00N 40°39' W 074°02'2 4.0
2017-Sep-21 18:30N 40°38' W 074°04'0 0.0
2017-Sep-21 18:00N 40°38' W 074°04'0 0.5
2017-Sep-21 17:30N 40°38' W 074°04'0 0.5
2017-Sep-21 17:00N 40°38' W 074°04'2 4.8
2017-Sep-21 16:30N 40°40' W 074°03'4 7.1
2017-Sep-21 16:00N 40°43' W 074°02'1 1.3
2017-Sep-21 15:30N 40°44' W 074°02'2 3.5
2017-Sep-21 15:00N 40°42' W 074°02'2 4.0
2017-Sep-21 14:30N 40°40' W 074°01'0 0.6
2017-Sep-21 14:00N 40°40' W 074°01'2 4.0
2017-Sep-21 13:30N 40°41' W 074°03'0 0.5
2017-Sep-21 13:00N 40°41' W 074°03'0 0.9
2017-Sep-21 12:30N 40°41' W 074°03'1 1.5
2017-Sep-21 12:00N 40°42' W 074°04'1 1.0
2017-Sep-21 11:30N 40°41' W 074°03'2 4.2
2017-Sep-21 11:00N 40°40' W 074°01'  
2017-Sep-18 19:39N 40°40' W 074°01'0 0.1
2017-Sep-18 19:30N 40°40' W 074°01'1 2.3
2017-Sep-18 19:00N 40°40' W 074°02'2 4.6
2017-Sep-18 18:30N 40°38' W 074°04'0 0.4
2017-Sep-18 18:00N 40°38' W 074°04'0 0.0
2017-Sep-18 17:30N 40°38' W 074°04'0 0.0
2017-Sep-18 17:01N 40°38' W 074°04'0 0.6
2017-Sep-18 16:30N 40°38' W 074°04'0 0.8
2017-Sep-18 16:00N 40°38' W 074°04'4 8.7
2017-Sep-18 15:30N 40°42' W 074°01'1 1.8
2017-Sep-18 15:00N 40°41' W 074°02'3 6.1
2017-Sep-18 14:30N 40°38' W 074°04'1 1.5
2017-Sep-18 14:00N 40°38' W 074°04'0 0.6
2017-Sep-18 13:30N 40°38' W 074°04'2 4.6
2017-Sep-18 13:00N 40°40' W 074°03'3 6.0
2017-Sep-18 12:30N 40°43' W 074°02'3 5.2
2017-Sep-18 12:00N 40°46' W 074°01'0 0.3
2017-Sep-18 11:29N 40°46' W 074°01'0 0.5
2017-Sep-18 11:00N 40°46' W 074°01'1 2.6
2017-Sep-18 10:30N 40°44' W 074°01'4 7.3
2017-Sep-18 10:00N 40°41' W 074°03'3 5.7
2017-Sep-18 09:30N 40°38' W 074°04'  
2017-Sep-15 15:21N 40°38' W 074°04'0 0.0
2017-Sep-14 20:24N 40°38' W 074°04'2 4.6
2017-Sep-14 20:01N 40°40' W 074°03'3 5.3
2017-Sep-14 19:31N 40°42' W 074°02'3 5.3
2017-Sep-14 19:01N 40°45' W 074°01'1 1.7
2017-Sep-14 18:30N 40°46' W 074°01'0 0.2
2017-Sep-14 18:00N 40°46' W 074°01'1 2.9
2017-Sep-14 17:31N 40°44' W 074°01'3 6.8
2017-Sep-14 17:01N 40°41' W 074°03'3 6.0
2017-Sep-14 16:30N 40°38' W 074°04'0 0.0
2017-Sep-14 16:00N 40°38' W 074°04'0 0.0
2017-Sep-14 15:31N 40°38' W 074°04'0 0.0
2017-Sep-13 22:43N 40°38' W 074°04'0 0.3
2017-Sep-13 22:31N 40°38' W 074°04'2 3.4
2017-Sep-13 22:00N 40°39' W 074°06'4 7.3
2017-Sep-13 21:30N 40°39' W 074°11'2 3.9
2017-Sep-13 21:00N 40°39' W 074°09'3 6.0
2017-Sep-13 20:31N 40°39' W 074°05'3 6.8
2017-Sep-13 20:01N 40°42' W 074°02'2 3.7
2017-Sep-13 19:31N 40°44' W 074°02'0 0.2
2017-Sep-13 19:01N 40°43' W 074°02'0 0.1
2017-Sep-13 18:31N 40°44' W 074°02'0 0.3
2017-Sep-13 18:01N 40°44' W 074°02'0 0.3
2017-Sep-13 17:31N 40°43' W 074°02'2 3.8
2017-Sep-13 17:01N 40°42' W 074°02'4 7.4
2017-Sep-13 16:31N 40°38' W 074°04'0 0.0
2017-Sep-13 11:47N 40°38' W 074°04'0 0.0
2017-Sep-12 20:17N 40°38' W 074°04'1 3.8
2017-Sep-12 20:00N 40°39' W 074°04'3 6.0
2017-Sep-12 19:30N 40°42' W 074°02'3 5.2
2017-Sep-12 19:00N 40°44' W 074°01'1 2.5
2017-Sep-12 18:29N 40°46' W 074°01'0 0.5
2017-Sep-12 18:00N 40°46' W 074°01'0 0.5
2017-Sep-12 17:30N 40°46' W 074°01'0 0.0
2017-Sep-12 17:00N 40°46' W 074°01'2 4.5
2017-Sep-12 16:30N 40°43' W 074°02'2 3.9
2017-Sep-12 16:00N 40°42' W 074°02'0 0.5
2017-Sep-12 15:30N 40°42' W 074°02'0 0.2
2017-Sep-12 15:00N 40°42' W 074°02'0 0.5
2017-Sep-12 14:30N 40°41' W 074°02'3 6.2
2017-Sep-12 14:00N 40°39' W 074°04'0 0.8
2017-Sep-12 13:30N 40°38' W 074°04'0 0.1
2017-Sep-12 13:00N 40°38' W 074°04'  
Track history (hours):
 
Tides and Currents Weather Stations Pressure Air Temp Water Temp Dewpoint Dewpoint Depression Visibility Wind Speed Wind Dir Waves Ship Positions

Linda L. Miller

Owner: Miller's Launch, Staten Island, NY. More information available from US FCC via Universal Licensing System and Coast Guard Vessel Documentation Center.

Last reported at 2017-Sep-21 19:30 UTC. Time now 2017-Sep-25 00:48 UTC.
Position N 40°40' W 074°01'.

Length 9 m.

MMSI: 367461380.

Date/timePositionNaut miles runAvg speedWind from/ knotsBaromVisibWave heightAir tempDewpointWater temp
2017-Sep-21 19:30N 40°40' W 074°01'2 3.1
2017-Sep-21 19:00N 40°39' W 074°02'2 4.0
2017-Sep-21 18:30N 40°38' W 074°04'0 0.0
2017-Sep-21 18:00N 40°38' W 074°04'0 0.5
2017-Sep-21 17:30N 40°38' W 074°04'0 0.5
2017-Sep-21 17:00N 40°38' W 074°04'2 4.8
2017-Sep-21 16:30N 40°40' W 074°03'4 7.1
2017-Sep-21 16:00N 40°43' W 074°02'1 1.3
2017-Sep-21 15:30N 40°44' W 074°02'2 3.5
2017-Sep-21 15:00N 40°42' W 074°02'2 4.0
2017-Sep-21 14:30N 40°40' W 074°01'0 0.6
2017-Sep-21 14:00N 40°40' W 074°01'2 4.0
2017-Sep-21 13:30N 40°41' W 074°03'0 0.5
2017-Sep-21 13:00N 40°41' W 074°03'0 0.9
2017-Sep-21 12:30N 40°41' W 074°03'1 1.5
2017-Sep-21 12:00N 40°42' W 074°04'1 1.0
2017-Sep-21 11:30N 40°41' W 074°03'2 4.2
2017-Sep-21 11:00N 40°40' W 074°01'  
2017-Sep-18 19:39N 40°40' W 074°01'0 0.1
2017-Sep-18 19:30N 40°40' W 074°01'1 2.3
2017-Sep-18 19:00N 40°40' W 074°02'2 4.6
2017-Sep-18 18:30N 40°38' W 074°04'0 0.4
2017-Sep-18 18:00N 40°38' W 074°04'0 0.0
2017-Sep-18 17:30N 40°38' W 074°04'0 0.0
2017-Sep-18 17:01N 40°38' W 074°04'0 0.6
2017-Sep-18 16:30N 40°38' W 074°04'0 0.8
2017-Sep-18 16:00N 40°38' W 074°04'4 8.7
2017-Sep-18 15:30N 40°42' W 074°01'1 1.8
2017-Sep-18 15:00N 40°41' W 074°02'3 6.1
2017-Sep-18 14:30N 40°38' W 074°04'1 1.5
2017-Sep-18 14:00N 40°38' W 074°04'0 0.6
2017-Sep-18 13:30N 40°38' W 074°04'2 4.6
2017-Sep-18 13:00N 40°40' W 074°03'3 6.0
2017-Sep-18 12:30N 40°43' W 074°02'3 5.2
2017-Sep-18 12:00N 40°46' W 074°01'0 0.3
2017-Sep-18 11:29N 40°46' W 074°01'0 0.5
2017-Sep-18 11:00N 40°46' W 074°01'1 2.6
2017-Sep-18 10:30N 40°44' W 074°01'4 7.3
2017-Sep-18 10:00N 40°41' W 074°03'3 5.7
2017-Sep-18 09:30N 40°38' W 074°04'  
2017-Sep-15 15:21N 40°38' W 074°04'0 0.0
2017-Sep-14 20:24N 40°38' W 074°04'2 4.6
2017-Sep-14 20:01N 40°40' W 074°03'3 5.3
2017-Sep-14 19:31N 40°42' W 074°02'3 5.3
2017-Sep-14 19:01N 40°45' W 074°01'1 1.7
2017-Sep-14 18:30N 40°46' W 074°01'0 0.2
2017-Sep-14 18:00N 40°46' W 074°01'1 2.9
2017-Sep-14 17:31N 40°44' W 074°01'3 6.8
2017-Sep-14 17:01N 40°41' W 074°03'3 6.0
2017-Sep-14 16:30N 40°38' W 074°04'0 0.0
2017-Sep-14 16:00N 40°38' W 074°04'0 0.0
2017-Sep-14 15:31N 40°38' W 074°04'0 0.0
2017-Sep-13 22:43N 40°38' W 074°04'0 0.3
2017-Sep-13 22:31N 40°38' W 074°04'2 3.4
2017-Sep-13 22:00N 40°39' W 074°06'4 7.3
2017-Sep-13 21:30N 40°39' W 074°11'2 3.9
2017-Sep-13 21:00N 40°39' W 074°09'3 6.0
2017-Sep-13 20:31N 40°39' W 074°05'3 6.8
2017-Sep-13 20:01N 40°42' W 074°02'2 3.7
2017-Sep-13 19:31N 40°44' W 074°02'0 0.2
2017-Sep-13 19:01N 40°43' W 074°02'0 0.1
2017-Sep-13 18:31N 40°44' W 074°02'0 0.3
2017-Sep-13 18:01N 40°44' W 074°02'0 0.3
2017-Sep-13 17:31N 40°43' W 074°02'2 3.8
2017-Sep-13 17:01N 40°42' W 074°02'4 7.4
2017-Sep-13 16:31N 40°38' W 074°04'0 0.0
2017-Sep-13 11:47N 40°38' W 074°04'0 0.0
2017-Sep-12 20:17N 40°38' W 074°04'1 3.8
2017-Sep-12 20:00N 40°39' W 074°04'3 6.0
2017-Sep-12 19:30N 40°42' W 074°02'3 5.2
2017-Sep-12 19:00N 40°44' W 074°01'1 2.5
2017-Sep-12 18:29N 40°46' W 074°01'0 0.5
2017-Sep-12 18:00N 40°46' W 074°01'0 0.5
2017-Sep-12 17:30N 40°46' W 074°01'0 0.0
2017-Sep-12 17:00N 40°46' W 074°01'2 4.5
2017-Sep-12 16:30N 40°43' W 074°02'2 3.9
2017-Sep-12 16:00N 40°42' W 074°02'0 0.5
2017-Sep-12 15:30N 40°42' W 074°02'0 0.2
2017-Sep-12 15:00N 40°42' W 074°02'0 0.5
2017-Sep-12 14:30N 40°41' W 074°02'3 6.2
2017-Sep-12 14:00N 40°39' W 074°04'0 0.8
2017-Sep-12 13:30N 40°38' W 074°04'0 0.1
2017-Sep-12 13:00N 40°38' W 074°04'  

Dump ship's entire track history